Time,TemperatureF,DewpointF,PressureIn,WindDirection,WindDirectionDegrees,WindSpeedMPH,WindSpeedGustMPH,Humidity,HourlyPrecipIn,Conditions,Clouds,dailyrainin,SoftwareType,DateUTC
2013-07-26 00:02:00,53.0,48.0,-100.00,WNW,284,7.0,10.0,84,0.00,,,-99.99,,2013-07-26 06:02:00,
2013-07-26 00:12:00,53.0,48.0,-100.00,West,280,9.0,12.0,83,0.00,,,-99.99,,2013-07-26 06:12:00,
2013-07-26 01:43:00,59.0,40.0,-100.00,SSW,195,9.0,12.0,49,0.00,,,-99.99,,2013-07-26 07:43:00,
2013-07-26 03:02:00,53.0,43.0,-100.00,East,86,4.0,7.0,71,0.00,,,-99.99,,2013-07-26 09:02:00,
2013-07-26 03:43:00,52.0,44.0,-100.00,SW,229,6.0,9.0,73,0.00,,,-99.99,,2013-07-26 09:43:00,
2013-07-26 04:12:00,50.0,41.0,-100.00,West,277,2.0,4.0,71,0.00,,,-99.99,,2013-07-26 10:12:00,
2013-07-26 05:43:00,53.0,37.0,-100.00,SSW,206,2.0,6.0,54,0.00,,,-99.99,,2013-07-26 11:43:00,
2013-07-26 06:02:00,53.0,37.0,-100.00,WNW,291,2.0,5.0,53,0.00,,,-99.99,,2013-07-26 12:02:00,
2013-07-26 09:43:00,65.0,44.0,-100.00,ENE,68,4.0,7.0,47,0.00,,,-99.99,,2013-07-26 15:43:00,
2013-07-26 10:43:00,67.0,46.0,-100.00,NNW,342,4.0,7.0,47,0.00,,,-99.99,,2013-07-26 16:43:00,
2013-07-26 11:43:00,70.0,47.0,-100.00,NNE,21,4.0,10.0,43,0.00,,,-99.99,,2013-07-26 17:43:00,
2013-07-26 12:02:00,71.0,39.0,-100.00,NNW,337,7.0,14.0,32,0.00,,,-99.99,,2013-07-26 18:02:00,
2013-07-26 12:12:00,72.0,40.0,-100.00,NNW,346,7.0,15.0,31,0.00,,,-99.99,,2013-07-26 18:12:00,
2013-07-26 12:43:00,72.0,38.0,-100.00,NNW,347,10.0,16.0,28,0.00,,,-99.99,,2013-07-26 18:43:00,
2013-07-26 13:32:00,74.0,36.0,-100.00,NNW,335,10.0,16.0,25,0.00,,,-99.99,,2013-07-26 19:32:00,
2013-07-26 13:43:00,74.0,36.0,-100.00,NNW,329,12.0,17.0,25,0.00,,,-99.99,,2013-07-26 19:43:00,
2013-07-26 14:43:00,76.0,32.0,-100.00,WNW,302,9.0,18.0,20,0.00,,,-99.99,,2013-07-26 20:43:00,
2013-07-26 15:12:00,77.0,31.0,-100.00,NNW,328,10.0,22.0,19,0.00,,,-99.99,,2013-07-26 21:12:00,
2013-07-26 15:43:00,76.0,32.0,-100.00,WNW,301,9.0,17.0,20,0.00,,,-99.99,,2013-07-26 21:43:00,
2013-07-26 17:12:00,75.0,37.0,-100.00,NW,316,15.0,25.0,26,0.00,,,-99.99,,2013-07-26 23:12:00,
2013-07-26 18:42:00,72.0,33.0,-100.00,WNW,289,12.0,21.0,23,0.00,,,-99.99,,2013-07-27 00:42:00,
2013-07-26 19:32:00,71.0,35.0,-100.00,WSW,250,15.0,21.0,27,0.00,,,-99.99,,2013-07-27 01:32:00,
2013-07-26 19:43:00,70.0,33.0,-100.00,SW,236,12.0,18.0,26,0.00,,,-99.99,,2013-07-27 01:43:00,
2013-07-26 20:12:00,70.0,34.0,-100.00,WSW,254,14.0,22.0,27,0.00,,,-99.99,,2013-07-27 02:12:00,
2013-07-26 20:22:00,70.0,32.0,-100.00,WSW,239,16.0,22.0,24,0.00,,,-99.99,,2013-07-27 02:22:00,
2013-07-26 20:32:00,70.0,31.0,-100.00,WSW,243,12.0,19.0,24,0.00,,,-99.99,,2013-07-27 02:32:00,
2013-07-26 20:43:00,69.0,31.0,-100.00,WSW,237,9.0,19.0,24,0.00,,,-99.99,,2013-07-27 02:43:00,
2013-07-26 21:02:00,68.0,31.0,-100.00,SW,220,14.0,18.0,25,0.00,,,-99.99,,2013-07-27 03:02:00,
2013-07-26 21:44:00,69.0,34.0,-100.00,WSW,254,25.0,38.0,28,0.00,,,-99.99,,2013-07-27 03:44:00,
2013-07-26 23:12:00,65.0,35.0,-100.00,SW,236,9.0,12.0,33,0.00,,,-99.99,,2013-07-27 05:12:00,
2013-07-26 23:43:00,65.0,35.0,-100.00,WSW,254,7.0,11.0,33,0.00,,,-99.99,,2013-07-27 05:43:00,